<?xml version="1.0" encoding="UTF-8" standalone="no" ?>
<gpx xmlns="http://www.topografix.com/GPX/1/1" xmlns:xsi="http://www.w3.org/2001/XMLSchema-instance" xsi:schemaLocation="http://www.topografix.com/GPX/1/1 http://www.topografix.com/GPX/1/1/gpx.xsd" version="1.1" creator="VisuGPX - https://www.visugpx.com">
  <metadata>
    <name>#FONT/ Bois_Rond_et laTouche_aux_mulets</name>
    <desc><![CDATA[Du parking de Bois-Rond, suivre en bas de la colline du Rocher de la Reine, gagner la Platière de la Touche aux Mulets, descendre dans la vallée de la gorge aux Archers, passer par la platière des Béorlots et sa dune Saharienne puis la Plaine d ela Haute Borne et les mares des Couleuvreux pour revenir en passant par le Moine pour retrouver le parking.]]></desc>
  </metadata>
  <trk>
    <name><![CDATA[Bois rond la touche aux milets-17023953]]></name>
    <extensions>
      <line xmlns="http://www.topografix.com/GPX/gpx_style/0/2">
        <color>0000FF</color>
        <width>4</width>
      </line>
    </extensions>
    <trkseg>
      <trkpt lat="48.38762" lon="2.56132">
        <ele>79</ele>
        <time>2023-06-20T13:48:58Z</time>
      </trkpt>
      <trkpt lat="48.38887" lon="2.56383">
        <ele>82</ele>
        <time>2023-06-20T13:53:36Z</time>
      </trkpt>
      <trkpt lat="48.38931" lon="2.56593">
        <ele>85</ele>
        <time>2023-06-20T13:56:51Z</time>
      </trkpt>
      <trkpt lat="48.39032" lon="2.56772">
        <ele>93</ele>
        <time>2023-06-20T14:00:19Z</time>
      </trkpt>
      <trkpt lat="48.38972" lon="2.57086">
        <ele>103</ele>
        <time>2023-06-20T14:05:09Z</time>
      </trkpt>
      <trkpt lat="48.38924" lon="2.57234">
        <ele>108</ele>
        <time>2023-06-20T14:07:35Z</time>
      </trkpt>
      <trkpt lat="48.38927" lon="2.574">
        <ele>115</ele>
        <time>2023-06-20T14:10:02Z</time>
      </trkpt>
      <trkpt lat="48.38981" lon="2.57561">
        <ele>120</ele>
        <time>2023-06-20T14:12:42Z</time>
      </trkpt>
      <trkpt lat="48.38951" lon="2.57708">
        <ele>125</ele>
        <time>2023-06-20T14:14:58Z</time>
      </trkpt>
      <trkpt lat="48.38891" lon="2.57901">
        <ele>125</ele>
        <time>2023-06-20T14:18:07Z</time>
      </trkpt>
      <trkpt lat="48.38832" lon="2.57887">
        <ele>128</ele>
        <time>2023-06-20T14:19:27Z</time>
      </trkpt>
      <trkpt lat="48.38868" lon="2.58093">
        <ele>127</ele>
        <time>2023-06-20T14:22:35Z</time>
      </trkpt>
      <trkpt lat="48.38871" lon="2.58348">
        <ele>127</ele>
        <time>2023-06-20T14:26:21Z</time>
      </trkpt>
      <trkpt lat="48.38811" lon="2.58505">
        <ele>128</ele>
        <time>2023-06-20T14:29:02Z</time>
      </trkpt>
      <trkpt lat="48.3877" lon="2.58648">
        <ele>125</ele>
        <time>2023-06-20T14:31:20Z</time>
      </trkpt>
      <trkpt lat="48.38678" lon="2.58652">
        <ele>121</ele>
        <time>2023-06-20T14:33:23Z</time>
      </trkpt>
      <trkpt lat="48.38624" lon="2.58782">
        <ele>111</ele>
        <time>2023-06-20T14:35:39Z</time>
      </trkpt>
      <trkpt lat="48.38494" lon="2.58812">
        <ele>105</ele>
        <time>2023-06-20T14:38:34Z</time>
      </trkpt>
      <trkpt lat="48.38352" lon="2.58767">
        <ele>103</ele>
        <time>2023-06-20T14:41:48Z</time>
      </trkpt>
      <trkpt lat="48.38248" lon="2.58696">
        <ele>113</ele>
        <time>2023-06-20T14:44:20Z</time>
      </trkpt>
      <trkpt lat="48.38111" lon="2.58785">
        <ele>123</ele>
        <time>2023-06-20T14:47:39Z</time>
      </trkpt>
      <trkpt lat="48.38001" lon="2.5909">
        <ele>124</ele>
        <time>2023-06-20T14:52:47Z</time>
      </trkpt>
      <trkpt lat="48.37533" lon="2.59477">
        <ele>134</ele>
        <time>2023-06-20T15:04:40Z</time>
      </trkpt>
      <trkpt lat="48.37399" lon="2.5958">
        <ele>132</ele>
        <time>2023-06-20T15:08:00Z</time>
      </trkpt>
      <trkpt lat="48.37331" lon="2.5975">
        <ele>133</ele>
        <time>2023-06-20T15:10:56Z</time>
      </trkpt>
      <trkpt lat="48.37167" lon="2.59978">
        <ele>128</ele>
        <time>2023-06-20T15:15:54Z</time>
      </trkpt>
      <trkpt lat="48.37031" lon="2.59902">
        <ele>126</ele>
        <time>2023-06-20T15:19:08Z</time>
      </trkpt>
      <trkpt lat="48.36936" lon="2.59952">
        <ele>127</ele>
        <time>2023-06-20T15:21:22Z</time>
      </trkpt>
      <trkpt lat="48.36882" lon="2.59808">
        <ele>129</ele>
        <time>2023-06-20T15:23:49Z</time>
      </trkpt>
      <trkpt lat="48.36829" lon="2.59773">
        <ele>128</ele>
        <time>2023-06-20T15:25:06Z</time>
      </trkpt>
      <trkpt lat="48.36781" lon="2.59692">
        <ele>128</ele>
        <time>2023-06-20T15:26:42Z</time>
      </trkpt>
      <trkpt lat="48.36582" lon="2.59531">
        <ele>126</ele>
        <time>2023-06-20T15:31:44Z</time>
      </trkpt>
      <trkpt lat="48.36695" lon="2.59532">
        <ele>123</ele>
        <time>2023-06-20T15:34:14Z</time>
      </trkpt>
      <trkpt lat="48.36719" lon="2.59369">
        <ele>121</ele>
        <time>2023-06-20T15:36:42Z</time>
      </trkpt>
      <trkpt lat="48.36875" lon="2.59182">
        <ele>118</ele>
        <time>2023-06-20T15:41:08Z</time>
      </trkpt>
      <trkpt lat="48.36989" lon="2.59047">
        <ele>121</ele>
        <time>2023-06-20T15:44:22Z</time>
      </trkpt>
      <trkpt lat="48.36995" lon="2.58553">
        <ele>116</ele>
        <time>2023-06-20T15:51:40Z</time>
      </trkpt>
      <trkpt lat="48.36827" lon="2.58369">
        <ele>119</ele>
        <time>2023-06-20T15:56:17Z</time>
      </trkpt>
      <trkpt lat="48.36908" lon="2.58162">
        <ele>118</ele>
        <time>2023-06-20T15:59:50Z</time>
      </trkpt>
      <trkpt lat="48.36948" lon="2.57963">
        <ele>120</ele>
        <time>2023-06-20T16:02:55Z</time>
      </trkpt>
      <trkpt lat="48.36936" lon="2.57816">
        <ele>122</ele>
        <time>2023-06-20T16:05:06Z</time>
      </trkpt>
      <trkpt lat="48.36902" lon="2.57659">
        <ele>119</ele>
        <time>2023-06-20T16:07:32Z</time>
      </trkpt>
      <trkpt lat="48.36934" lon="2.5752">
        <ele>121</ele>
        <time>2023-06-20T16:09:43Z</time>
      </trkpt>
      <trkpt lat="48.36982" lon="2.57346">
        <ele>121</ele>
        <time>2023-06-20T16:12:30Z</time>
      </trkpt>
      <trkpt lat="48.37032" lon="2.5718">
        <ele>121</ele>
        <time>2023-06-20T16:15:11Z</time>
      </trkpt>
      <trkpt lat="48.37048" lon="2.5708">
        <ele>121</ele>
        <time>2023-06-20T16:16:42Z</time>
      </trkpt>
      <trkpt lat="48.37046" lon="2.56936">
        <ele>124</ele>
        <time>2023-06-20T16:18:50Z</time>
      </trkpt>
      <trkpt lat="48.37134" lon="2.56924">
        <ele>123</ele>
        <time>2023-06-20T16:20:48Z</time>
      </trkpt>
      <trkpt lat="48.37202" lon="2.56978">
        <ele>124</ele>
        <time>2023-06-20T16:22:31Z</time>
      </trkpt>
      <trkpt lat="48.37274" lon="2.57092">
        <ele>126</ele>
        <time>2023-06-20T16:24:50Z</time>
      </trkpt>
      <trkpt lat="48.37326" lon="2.57198">
        <ele>126</ele>
        <time>2023-06-20T16:26:47Z</time>
      </trkpt>
      <trkpt lat="48.37356" lon="2.57267">
        <ele>125</ele>
        <time>2023-06-20T16:28:00Z</time>
      </trkpt>
      <trkpt lat="48.37405" lon="2.57106">
        <ele>126</ele>
        <time>2023-06-20T16:30:37Z</time>
      </trkpt>
      <trkpt lat="48.37511" lon="2.57094">
        <ele>126</ele>
        <time>2023-06-20T16:32:59Z</time>
      </trkpt>
      <trkpt lat="48.37609" lon="2.57106">
        <ele>126</ele>
        <time>2023-06-20T16:35:10Z</time>
      </trkpt>
      <trkpt lat="48.37695" lon="2.57034">
        <ele>122</ele>
        <time>2023-06-20T16:37:21Z</time>
      </trkpt>
      <trkpt lat="48.37777" lon="2.57615">
        <ele>127</ele>
        <time>2023-06-20T16:46:08Z</time>
      </trkpt>
      <trkpt lat="48.38123" lon="2.58028">
        <ele>124</ele>
        <time>2023-06-20T16:55:57Z</time>
      </trkpt>
      <trkpt lat="48.38197" lon="2.57687">
        <ele>122</ele>
        <time>2023-06-20T17:01:15Z</time>
      </trkpt>
      <trkpt lat="48.38219" lon="2.57371">
        <ele>121</ele>
        <time>2023-06-20T17:05:57Z</time>
      </trkpt>
      <trkpt lat="48.38227" lon="2.57124">
        <ele>117</ele>
        <time>2023-06-20T17:09:36Z</time>
      </trkpt>
      <trkpt lat="48.38259" lon="2.57003">
        <ele>114</ele>
        <time>2023-06-20T17:11:31Z</time>
      </trkpt>
      <trkpt lat="48.38269" lon="2.5685">
        <ele>111</ele>
        <time>2023-06-20T17:13:48Z</time>
      </trkpt>
      <trkpt lat="48.38375" lon="2.56696">
        <ele>104</ele>
        <time>2023-06-20T17:17:04Z</time>
      </trkpt>
      <trkpt lat="48.38498" lon="2.56463">
        <ele>92</ele>
        <time>2023-06-20T17:21:28Z</time>
      </trkpt>
      <trkpt lat="48.38696" lon="2.56337">
        <ele>81</ele>
        <time>2023-06-20T17:26:15Z</time>
      </trkpt>
      <trkpt lat="48.38742" lon="2.56255">
        <ele>79</ele>
        <time>2023-06-20T17:27:50Z</time>
      </trkpt>
      <trkpt lat="48.38754" lon="2.56171">
        <ele>79</ele>
        <time>2023-06-20T17:29:06Z</time>
      </trkpt>
    </trkseg>
  </trk>
</gpx>